createdAt,value
2022-11-30T06:34:23.940Z,20.17
2022-11-30T06:36:51.263Z,20.83
2022-11-30T06:39:31.426Z,21.60
2022-11-30T06:42:05.987Z,20.03
2022-11-30T06:44:33.282Z,19.93
2022-11-30T06:47:00.584Z,20.27
2022-11-30T06:49:28.292Z,20.33
2022-11-30T06:51:56.215Z,20.80
2022-11-30T06:54:24.704Z,20.23
2022-11-30T06:56:51.952Z,19.63
2022-11-30T06:59:19.308Z,19.50
2022-11-30T07:01:46.523Z,19.67
2022-11-30T07:04:13.795Z,19.63
2022-11-30T07:06:41.136Z,19.83
2022-11-30T07:09:10.373Z,20.47
2022-11-30T07:11:37.591Z,20.30
2022-11-30T07:14:04.904Z,20.43
2022-11-30T07:16:34.744Z,20.50
2022-11-30T07:19:54.849Z,20.47
2022-11-30T07:22:24.476Z,19.40
2022-11-30T07:25:10.374Z,19.17
2022-11-30T07:27:40.129Z,20.73
2022-11-30T07:30:46.734Z,20.83
2022-11-30T07:33:19.475Z,19.47
2022-11-30T07:35:57.173Z,19.93
2022-11-30T07:38:30.254Z,21.03
2022-11-30T07:41:12.167Z,20.87
2022-11-30T07:43:49.793Z,21.10
2022-11-30T07:46:34.598Z,19.97
2022-11-30T07:49:08.535Z,21.17
2022-11-30T07:52:14.234Z,20.23
2022-11-30T07:55:09.399Z,20.23
2022-11-30T07:58:17.488Z,20.23
2022-11-30T08:01:27.147Z,19.50
2022-11-30T08:03:58.067Z,20.43
2022-11-30T08:06:30.102Z,21.03
2022-11-30T08:09:03.149Z,21.20
2022-11-30T08:11:43.183Z,19.43
2022-11-30T08:14:14.996Z,20.17
2022-11-30T08:17:04.992Z,19.83
2022-11-30T08:19:33.532Z,19.37
2022-11-30T08:22:00.826Z,19.57
2022-11-30T08:24:28.939Z,20.20
2022-11-30T08:26:56.392Z,20.27
2022-11-30T08:29:27.750Z,21.27
2022-11-30T08:32:00.196Z,20.80
2022-11-30T08:34:37.958Z,20.47
2022-11-30T08:37:13.064Z,19.47
2022-11-30T08:39:40.661Z,18.97
2022-11-30T08:42:10.615Z,20.60
2022-11-30T08:44:37.948Z,19.27
2022-11-30T08:47:07.443Z,20.60
2022-11-30T08:49:36.025Z,19.37
2022-11-30T08:52:23.847Z,17.50
2022-11-30T08:54:51.569Z,19.10
2022-11-30T08:57:22.291Z,18.23
2022-11-30T08:59:49.991Z,17.50
2022-11-30T09:06:33.684Z,21.80
2022-11-30T09:09:04.192Z,20.20
2022-11-30T09:11:37.063Z,18.73
2022-11-30T09:14:08.090Z,19.47
2022-11-30T09:16:36.960Z,20.53
2022-11-30T09:19:04.680Z,19.23
2022-11-30T09:21:33.134Z,20.43
2022-11-30T09:24:00.915Z,20.43
2022-11-30T09:26:29.321Z,19.93
2022-11-30T09:29:16.802Z,20.50
2022-11-30T09:31:44.954Z,20.17
2022-11-30T09:34:13.068Z,20.63
2022-11-30T09:36:41.878Z,22.57
2022-11-30T09:39:16.847Z,21.30
2022-11-30T09:41:56.129Z,21.00
2022-11-30T09:44:27.221Z,21.23
2022-11-30T09:47:17.702Z,22.43
2022-11-30T09:49:45.809Z,21.13
2022-11-30T09:52:16.919Z,20.53
2022-11-30T09:54:45.285Z,21.47
2022-11-30T09:57:31.573Z,20.30
2022-11-30T10:00:00.147Z,19.73
2022-11-30T10:02:41.498Z,20.10
2022-11-30T10:05:17.358Z,18.60
2022-11-30T10:07:48.312Z,17.17
2022-11-30T10:10:37.968Z,16.93
2022-11-30T10:13:06.801Z,15.97
2022-11-30T10:15:54.566Z,15.83
2022-11-30T10:18:38.489Z,16.20
2022-11-30T10:21:08.966Z,17.00
2022-11-30T10:23:46.023Z,16.10
2022-11-30T10:26:15.943Z,15.03
2022-11-30T10:28:47.903Z,16.90
2022-11-30T10:31:16.022Z,16.87
2022-11-30T10:33:48.900Z,16.83
2022-11-30T10:36:37.185Z,16.80
2022-11-30T10:39:14.188Z,16.80
2022-11-30T10:41:47.614Z,15.77
2022-11-30T10:44:24.435Z,15.87
2022-11-30T10:47:03.611Z,17.10
2022-11-30T10:49:32.701Z,16.57
2022-11-30T10:52:08.084Z,17.20
2022-11-30T10:54:36.774Z,17.40
2022-11-30T10:57:05.622Z,16.50
2022-11-30T10:59:42.216Z,15.00
2022-11-30T11:02:28.657Z,15.97
2022-11-30T11:05:15.048Z,15.93
2022-11-30T11:07:48.146Z,16.20
2022-11-30T11:10:17.639Z,16.37
2022-11-30T11:12:52.587Z,17.27
2022-11-30T11:15:21.477Z,16.70
2022-11-30T11:17:49.124Z,16.77
2022-11-30T11:20:35.656Z,17.37
2022-11-30T11:23:07.977Z,17.03
2022-11-30T11:25:37.876Z,16.30
2022-11-30T11:28:13.667Z,15.90
2022-11-30T11:30:41.327Z,16.20
2022-11-30T11:33:12.062Z,15.50
2022-11-30T11:35:42.113Z,16.00
2022-11-30T11:38:19.383Z,16.40
2022-11-30T11:40:57.359Z,17.47
2022-11-30T11:43:25.753Z,17.40
2022-11-30T11:45:54.983Z,16.97
2022-11-30T11:48:34.813Z,18.27
2022-11-30T11:51:07.124Z,18.57
2022-11-30T11:53:43.297Z,17.00
2022-11-30T11:56:23.854Z,17.60
2022-11-30T11:58:58.504Z,16.93
2022-11-30T12:01:41.642Z,17.23
2022-11-30T12:04:32.214Z,16.37
2022-11-30T12:07:07.401Z,16.57
2022-11-30T12:09:45.779Z,16.70
2022-11-30T12:12:16.919Z,15.20
2022-11-30T12:14:58.163Z,15.00
2022-11-30T12:17:31.058Z,14.70
2022-11-30T12:20:04.342Z,14.83
2022-11-30T12:22:34.803Z,15.00
2022-11-30T12:25:13.694Z,14.67
2022-11-30T12:28:04.900Z,14.23
2022-11-30T12:30:42.918Z,14.80
2022-11-30T12:33:14.284Z,14.33
2022-11-30T12:36:05.574Z,14.00
2022-11-30T12:38:38.972Z,15.73
2022-11-30T12:41:29.133Z,14.63
2022-11-30T12:44:16.920Z,15.73
2022-11-30T12:46:47.529Z,15.17
2022-11-30T12:49:21.190Z,14.67
2022-11-30T12:51:58.012Z,15.57
2022-11-30T12:54:55.451Z,15.00
2022-11-30T12:57:35.127Z,14.67
2022-11-30T13:00:17.409Z,15.63
2022-11-30T13:02:53.807Z,15.20
2022-11-30T13:05:40.061Z,16.07
2022-11-30T13:08:25.673Z,14.47
2022-11-30T13:10:56.977Z,15.10
2022-11-30T13:13:29.807Z,15.30
2022-11-30T13:15:57.692Z,14.83
2022-11-30T13:18:25.909Z,15.40
2022-11-30T13:21:25.846Z,15.20
2022-11-30T13:24:09.635Z,15.10
2022-11-30T13:26:43.717Z,15.47
2022-11-30T13:29:29.577Z,15.37
2022-11-30T13:31:57.096Z,15.63
2022-11-30T13:34:28.496Z,14.57
2022-11-30T13:37:22.022Z,15.00
2022-11-30T13:39:56.161Z,15.20
2022-11-30T13:42:30.189Z,16.37
2022-11-30T13:44:58.235Z,15.43
2022-11-30T13:47:34.418Z,15.10
2022-11-30T13:50:05.494Z,16.83
2022-11-30T13:52:53.873Z,15.13
2022-11-30T13:55:46.044Z,15.53
2022-11-30T13:58:13.990Z,16.03
2022-11-30T14:00:47.995Z,16.63
2022-11-30T14:03:21.732Z,16.30
2022-11-30T14:05:55.700Z,16.77
2022-11-30T14:08:23.769Z,17.27
2022-11-30T14:10:56.495Z,16.93
2022-11-30T14:13:31.566Z,17.30
2022-11-30T14:16:00.696Z,16.43
2022-11-30T14:18:34.094Z,16.23
2022-11-30T14:21:07.125Z,16.60
2022-11-30T14:23:54.232Z,16.60
2022-11-30T14:26:33.520Z,17.07
2022-11-30T14:29:10.465Z,15.80
2022-11-30T14:31:43.269Z,16.03
2022-11-30T14:34:15.636Z,15.40
2022-11-30T14:36:45.892Z,16.90
2022-11-30T14:39:26.768Z,16.17
2022-11-30T14:41:54.910Z,16.00
2022-11-30T14:44:24.594Z,16.50
2022-11-30T14:46:51.947Z,16.23
2022-11-30T14:49:21.120Z,17.20
2022-11-30T14:51:52.717Z,17.53
2022-11-30T14:54:43.173Z,17.10
2022-11-30T14:57:18.915Z,16.83
2022-11-30T14:59:53.749Z,16.10
2022-11-30T15:02:23.356Z,15.80
2022-11-30T15:04:51.881Z,16.67
2022-11-30T15:07:28.982Z,14.87
2022-11-30T15:10:04.702Z,13.87
2022-11-30T15:12:32.435Z,15.00
2022-11-30T15:15:31.207Z,14.33
2022-11-30T15:18:00.014Z,13.67
2022-11-30T15:20:48.381Z,14.70
2022-11-30T15:23:16.406Z,14.90
2022-11-30T15:25:46.113Z,15.83
2022-11-30T15:28:15.115Z,15.40
2022-11-30T15:30:44.087Z,15.43
2022-11-30T15:33:21.659Z,15.80
2022-11-30T15:36:31.238Z,15.57
2022-11-30T15:38:55.283Z,15.87
2022-11-30T15:41:25.851Z,16.67
2022-11-30T15:43:54.264Z,15.90
2022-11-30T15:46:32.363Z,16.80
2022-11-30T15:49:06.997Z,16.03
2022-11-30T15:52:09.083Z,18.07
2022-11-30T15:54:43.325Z,17.20
2022-11-30T15:57:11.000Z,18.17
2022-11-30T15:59:38.231Z,18.30
2022-11-30T16:02:08.704Z,16.53
2022-11-30T16:04:54.751Z,17.20
2022-11-30T16:07:29.455Z,16.63
2022-11-30T16:10:07.650Z,16.33
2022-11-30T16:12:34.905Z,17.33
2022-11-30T16:15:02.368Z,18.10
2022-11-30T16:17:30.571Z,17.60
2022-11-30T16:19:58.067Z,17.87
2022-11-30T16:22:25.460Z,17.77
2022-11-30T16:24:52.810Z,16.90
2022-11-30T16:27:22.395Z,17.57
2022-11-30T16:29:52.591Z,17.93
2022-11-30T16:32:20.397Z,17.57
2022-11-30T16:34:48.612Z,17.47
2022-11-30T16:37:15.951Z,18.73
2022-11-30T16:39:43.450Z,20.37
2022-11-30T16:42:15.657Z,17.27
2022-11-30T16:44:43.092Z,17.40
2022-11-30T16:47:10.341Z,17.17
2022-11-30T16:49:37.679Z,16.10
2022-11-30T16:52:05.039Z,17.93
2022-11-30T16:54:32.506Z,19.10
2022-11-30T16:56:59.744Z,16.93
2022-11-30T16:59:27.022Z,17.13
2022-11-30T17:01:54.467Z,16.40
2022-11-30T17:04:23.984Z,16.20
2022-11-30T17:06:54.801Z,15.17
2022-11-30T17:09:27.332Z,15.63
2022-11-30T17:11:54.627Z,16.40
2022-11-30T17:14:22.454Z,16.83
2022-11-30T17:16:49.991Z,16.13
2022-11-30T17:19:17.399Z,15.70
2022-11-30T17:21:45.013Z,15.57
2022-11-30T17:24:13.276Z,15.93
2022-11-30T17:26:40.689Z,14.70
2022-11-30T17:29:08.001Z,14.40
2022-11-30T17:31:35.662Z,12.90
2022-11-30T17:34:03.094Z,12.87
2022-11-30T17:36:30.745Z,13.53
2022-11-30T17:38:58.152Z,13.47
2022-11-30T17:41:25.597Z,13.73
2022-11-30T17:43:52.993Z,12.67
2022-11-30T17:46:21.143Z,13.43
2022-11-30T17:48:49.738Z,13.07
2022-11-30T17:51:17.212Z,12.03
2022-11-30T17:53:44.724Z,12.80
2022-11-30T17:56:14.215Z,12.87
2022-11-30T17:58:44.230Z,12.00
2022-11-30T18:01:19.146Z,12.07
2022-11-30T18:03:46.923Z,12.70
2022-11-30T18:06:14.667Z,13.27
2022-11-30T18:08:42.022Z,12.40
2022-11-30T18:11:13.563Z,12.53
2022-11-30T18:13:41.225Z,13.37
2022-11-30T18:16:18.350Z,12.77
2022-11-30T18:18:48.210Z,13.07
2022-11-30T18:21:16.859Z,13.33
2022-11-30T18:23:45.354Z,13.07
2022-11-30T18:26:13.966Z,12.93
2022-11-30T18:28:41.327Z,13.00
2022-11-30T18:31:08.682Z,12.60
2022-11-30T18:33:36.568Z,13.63
2022-11-30T18:36:06.313Z,13.23
2022-11-30T18:39:05.630Z,13.50
2022-11-30T18:41:32.873Z,12.27
2022-11-30T18:44:00.240Z,13.47
2022-11-30T18:46:27.607Z,13.37
2022-11-30T18:48:55.359Z,13.30
2022-11-30T18:51:27.163Z,13.43
2022-11-30T18:53:58.532Z,13.23
2022-11-30T18:56:26.678Z,12.83
2022-11-30T18:58:58.227Z,13.20
2022-11-30T19:01:29.051Z,13.20
2022-11-30T19:04:04.473Z,13.97
2022-11-30T19:06:34.759Z,12.90
2022-11-30T19:09:03.968Z,13.40
2022-11-30T19:11:33.907Z,13.33
2022-11-30T19:14:01.781Z,12.93
2022-11-30T19:16:30.071Z,12.87
2022-11-30T19:19:00.048Z,13.50
2022-11-30T19:21:27.561Z,13.23
2022-11-30T19:23:54.999Z,12.97
2022-11-30T19:26:22.432Z,12.97
2022-11-30T19:28:49.863Z,12.40
2022-11-30T19:31:18.302Z,12.63
2022-11-30T19:33:46.745Z,12.60
2022-11-30T19:36:24.270Z,12.43
2022-11-30T19:38:51.695Z,12.40
2022-11-30T19:41:20.044Z,12.30
2022-11-30T19:43:53.915Z,12.47
2022-11-30T19:46:24.776Z,12.43
2022-11-30T19:48:56.674Z,12.33
2022-11-30T19:51:23.936Z,11.77
2022-11-30T19:53:55.559Z,12.13
2022-11-30T19:56:23.659Z,12.33
2022-11-30T19:58:51.160Z,11.97
2022-11-30T20:01:25.609Z,11.93
2022-11-30T20:03:54.035Z,11.93
2022-11-30T20:06:21.690Z,11.90
2022-11-30T20:08:49.155Z,12.07
2022-11-30T20:11:17.010Z,11.37
2022-11-30T20:13:46.125Z,11.50
2022-11-30T20:16:14.831Z,12.10
2022-11-30T20:18:46.206Z,11.77
2022-11-30T20:21:18.546Z,11.60
2022-11-30T20:23:47.295Z,11.20
2022-11-30T20:26:30.387Z,11.03
2022-11-30T20:28:59.664Z,10.10
2022-11-30T20:31:27.731Z,11.43
2022-11-30T20:33:54.995Z,11.17
2022-11-30T20:36:22.474Z,11.10
2022-11-30T20:39:21.775Z,11.97
2022-11-30T20:41:48.996Z,11.83
2022-11-30T20:44:16.390Z,12.20
2022-11-30T20:46:44.567Z,12.93
2022-11-30T20:49:21.383Z,13.03
2022-11-30T20:51:49.295Z,13.40
2022-11-30T20:54:17.530Z,12.37
2022-11-30T20:56:51.127Z,13.53
2022-11-30T20:59:26.355Z,13.40
2022-11-30T21:01:55.270Z,12.10
2022-11-30T21:04:23.775Z,12.67
2022-11-30T21:06:51.216Z,12.57
2022-11-30T21:10:10.154Z,13.47
2022-11-30T21:12:37.400Z,13.70
2022-11-30T21:15:05.752Z,12.83
2022-11-30T21:17:33.155Z,12.10
2022-11-30T21:20:02.814Z,12.53
2022-11-30T21:22:42.322Z,12.63
2022-11-30T21:25:09.843Z,11.50
2022-11-30T21:27:37.167Z,12.67
2022-11-30T21:30:05.368Z,11.97
2022-11-30T21:32:32.692Z,11.73
2022-11-30T21:35:00.387Z,11.97
2022-11-30T21:37:27.745Z,11.57
2022-11-30T21:39:55.710Z,12.43
2022-11-30T21:42:22.974Z,11.40
2022-11-30T21:44:50.505Z,11.77
2022-11-30T21:47:18.064Z,11.10
2022-11-30T21:49:45.448Z,11.20
2022-11-30T21:52:12.771Z,11.40
2022-11-30T21:54:40.013Z,11.97
2022-11-30T21:57:07.355Z,12.37
2022-11-30T21:59:35.065Z,11.67
2022-11-30T22:02:02.516Z,12.63
2022-11-30T22:04:29.852Z,12.27
2022-11-30T22:06:57.260Z,12.27
2022-11-30T22:09:24.484Z,12.33
2022-11-30T22:11:51.825Z,11.50
2022-11-30T22:14:19.094Z,11.73
2022-11-30T22:16:46.351Z,11.53
2022-11-30T22:19:13.693Z,12.03
2022-11-30T22:21:45.349Z,11.57
2022-11-30T22:24:15.970Z,11.60
2022-11-30T22:26:44.766Z,11.50
2022-11-30T22:29:15.506Z,11.57
2022-11-30T22:31:43.957Z,11.67
2022-11-30T22:34:11.706Z,11.60
2022-11-30T22:36:39.876Z,12.57
2022-11-30T22:39:09.358Z,11.47
2022-11-30T22:41:36.680Z,12.37
2022-11-30T22:44:03.957Z,12.47
2022-11-30T22:46:33.105Z,12.10
2022-11-30T22:49:01.120Z,12.00
2022-11-30T22:51:29.201Z,12.83
2022-11-30T22:53:56.775Z,13.17
2022-11-30T22:56:50.508Z,12.90
2022-11-30T22:59:17.777Z,13.67
2022-11-30T23:01:46.562Z,13.73
2022-11-30T23:04:14.948Z,13.17
2022-11-30T23:06:43.440Z,12.87
2022-11-30T23:09:12.776Z,13.13
2022-11-30T23:11:40.280Z,13.03
2022-11-30T23:14:08.998Z,13.63
2022-11-30T23:16:36.792Z,13.67
2022-11-30T23:19:04.714Z,12.97
2022-11-30T23:21:38.892Z,13.43
2022-11-30T23:24:08.987Z,13.47
2022-11-30T23:26:37.249Z,13.87
